De Tour Village, MI

5:32 AM EDT on May 28, 2015 (GMT -0400)
Drummond Island | | Change Station
CLOSE
Current Station
Airport
Location: Drummond Island,
Elevation: 669 ft
Nearby Weather Stations

Elev 669 ft 46.01 °N, 83.74 °W | Updated 17 minutes ago

Clear
Clear
47 °F
Feels Like 47 °F
N
0
Wind Variable Wind from North

Today
High -- | Low -- °F
--% Chance of Precip.
Yesterday
High -- | Low -- °F
Precip. -- in
5:51 AM 9:15 PM
Waxing Gibbous, 74% visible
Pressure 30.12 in
Visibility 7.0 miles
Clouds Mostly Cloudy 3200 ft
Dew Point 47 °F
Humidity 100%
Rainfall 0.00 in
Snow Depth Not available.
UV 0 out of 12
Pollen 6.60 out of 12
Air Quality Not available.
Flu Activity Sporadic
METAR KDRM 280915Z AUTO 00000KT 7SM BKN032 09/09 A3012 RMK AO2 T00850085

More Conditions Fewer Conditions

Pressure 30.12 in
Visibility 7.0 miles
Clouds Mostly Cloudy 3200 ft
Dew Point 47 °F
Humidity 100%
Rainfall 0.00 in
Snow Depth Not available.
UV 0 out of 12
Pollen 6.60 out of 12
Air Quality Not available.
Flu Activity Sporadic
METAR KDRM 280915Z AUTO 00000KT 7SM BKN032 09/09 A3012 RMK AO2 T00850085

More Conditions Fewer Conditions

Nowcast | as of 4:00 am EDT on May 28, 2015

At 5 am...mostly clear. Patchy fog. Temperature 47. Light winds. At 7 am...mostly clear. Patchy fog. Temperature 47. Light winds. At 9 am...mostly clear. Temperature 51. East winds 6 mph. At 11 am...mostly clear. Temperature 60. Southeast winds 8 mph.

×

10-Day Weather Forecast

Almanac

Astronomy

May. 28, 2015 Rise Set
Actual Time
Civil Twilight
Nautical Twilight
Astronomical Twilight
Moon
Length of Visible Light
Length of Day
Tomorrow will be .
, % of the Moon is Illuminated

Today's Extremes

State Highs State Lows

Community

WunderPhotos

Upload Photos

1,824,935 photos uploaded!

WunderBlogs® & News

Nearby

Air Quality

  Air Quality AQ Index Pollutant
Not available.

Snow Depth

Station Depth Elevation

Earthquake Activity

City Distance Mag. Time & Date
Minimum magnitude displayed is 2.5.

Coastal Water Temperatures

Place Temperature

Stations

Nearby Weather Stations

Station Location Temp. Windchill Dew Point Humidity Wind Precip. Elev Updated Type